createdAt,value
2023-03-29T05:03:05.493Z,507.00
2023-03-29T05:04:06.511Z,509.00
2023-03-29T05:05:05.474Z,509.00
2023-03-29T05:06:06.514Z,508.00
2023-03-29T05:07:06.558Z,506.00
2023-03-29T05:08:06.567Z,505.00
2023-03-29T05:09:06.569Z,507.00
2023-03-29T05:10:06.593Z,508.00
2023-03-29T05:11:06.639Z,508.00
2023-03-29T05:12:06.692Z,506.00
2023-03-29T05:16:05.877Z,506.00
2023-03-29T05:17:06.876Z,506.00
2023-03-29T05:18:06.953Z,509.00
2023-03-29T05:19:06.954Z,509.00
2023-03-29T05:25:06.078Z,508.00
2023-03-29T05:26:07.075Z,510.00
2023-03-29T05:27:07.096Z,507.00
2023-03-29T05:30:06.133Z,508.00
2023-03-29T05:31:06.411Z,512.00
2023-03-29T05:32:07.343Z,510.00
2023-03-29T05:33:07.207Z,510.00
2023-03-29T05:34:07.195Z,511.00
2023-03-29T05:35:07.244Z,514.00
2023-03-29T05:36:07.261Z,514.00
2023-03-29T05:37:07.255Z,513.00
2023-03-29T05:38:07.281Z,511.00
2023-03-29T05:39:07.318Z,509.00
2023-03-29T05:40:07.307Z,511.00
2023-03-29T05:44:06.369Z,508.00
2023-03-29T05:45:07.377Z,509.00
2023-03-29T05:46:07.473Z,508.00
2023-03-29T05:47:07.417Z,511.00
2023-03-29T05:48:07.479Z,513.00
2023-03-29T05:52:06.472Z,520.00
2023-03-29T05:53:06.484Z,516.00
2023-03-29T05:54:07.498Z,513.00
2023-03-29T05:55:07.522Z,514.00
2023-03-29T05:56:07.543Z,513.00
2023-03-29T05:57:07.891Z,513.00
2023-03-29T06:01:06.588Z,512.00
2023-03-29T06:02:07.895Z,513.00
2023-03-29T06:03:18.028Z,513.00
2023-03-29T06:07:06.615Z,517.00
2023-03-29T06:08:08.310Z,522.00
2023-03-29T06:09:07.577Z,525.00
2023-03-29T06:10:07.574Z,532.00
2023-03-29T06:11:07.934Z,541.00
2023-03-29T06:15:06.523Z,568.00
2023-03-29T06:16:07.548Z,575.00
2023-03-29T06:17:07.558Z,586.00
2023-03-29T06:20:06.530Z,605.00
2023-03-29T06:21:07.491Z,614.00
2023-03-29T06:22:07.537Z,622.00
2023-03-29T06:23:07.502Z,633.00
2023-03-29T06:24:07.461Z,642.00
2023-03-29T06:25:07.466Z,654.00
2023-03-29T06:28:06.466Z,685.00
2023-03-29T06:31:06.738Z,716.00
2023-03-29T06:32:07.435Z,723.00
2023-03-29T06:35:06.409Z,743.00
2023-03-29T06:36:07.439Z,751.00
2023-03-29T06:38:06.376Z,769.00
2023-03-29T06:39:07.406Z,775.00
2023-03-29T06:40:07.388Z,782.00
2023-03-29T06:41:07.421Z,789.00
2023-03-29T06:42:20.016Z,803.00
2023-03-29T06:45:06.336Z,828.00
2023-03-29T06:46:07.360Z,836.00
2023-03-29T06:47:07.312Z,839.00
2023-03-29T06:48:06.377Z,844.00
2023-03-29T06:49:07.309Z,848.00
2023-03-29T06:51:06.273Z,860.00
2023-03-29T06:52:07.345Z,866.00
2023-03-29T06:53:07.271Z,883.00
2023-03-29T06:59:06.227Z,926.00
2023-03-29T07:00:07.224Z,932.00
2023-03-29T07:01:07.251Z,939.00
2023-03-29T07:04:06.217Z,961.00
2023-03-29T07:05:06.180Z,972.00
2023-03-29T07:06:06.186Z,980.00
2023-03-29T07:07:07.165Z,987.00
2023-03-29T07:09:06.154Z,1000.00
2023-03-29T07:10:07.152Z,1006.00
2023-03-29T07:11:07.183Z,1011.00
2023-03-29T07:12:07.119Z,1018.00
2023-03-29T07:13:07.126Z,1027.00
2023-03-29T07:14:07.150Z,1039.00
2023-03-29T07:18:06.167Z,1074.00
2023-03-29T07:19:06.152Z,1079.00
2023-03-29T07:20:07.091Z,1084.00
2023-03-29T07:21:07.129Z,1090.00
2023-03-29T07:23:06.040Z,1104.00
2023-03-29T07:24:07.050Z,1113.00
2023-03-29T07:26:06.034Z,1131.00
2023-03-29T07:27:07.038Z,1144.00
2023-03-29T07:28:07.043Z,1155.00
2023-03-29T07:29:07.105Z,1164.00
2023-03-29T07:30:07.130Z,1174.00
2023-03-29T07:31:07.210Z,1179.00
2023-03-29T07:32:07.250Z,1190.00
2023-03-29T07:33:07.396Z,1205.00
2023-03-29T07:34:06.335Z,1214.00
2023-03-29T07:35:07.369Z,1218.00
2023-03-29T07:36:06.492Z,1224.00
2023-03-29T07:37:07.473Z,1230.00
2023-03-29T07:38:07.487Z,1237.00
2023-03-29T07:39:07.524Z,1245.00
2023-03-29T07:40:07.581Z,1246.00
2023-03-29T07:41:07.627Z,1249.00
2023-03-29T07:42:07.684Z,1255.00
2023-03-29T07:43:07.757Z,1267.00
2023-03-29T07:44:07.735Z,1278.00
2023-03-29T07:45:07.764Z,1287.00
2023-03-29T07:46:07.802Z,1299.00
2023-03-29T07:48:06.933Z,1334.00
2023-03-29T07:49:07.813Z,1334.00
2023-03-29T07:50:07.844Z,1399.00
2023-03-29T07:51:07.860Z,1508.00
2023-03-29T07:52:08.363Z,1511.00
2023-03-29T07:54:06.854Z,1523.00
2023-03-29T07:55:07.874Z,1597.00
2023-03-29T07:58:06.871Z,1695.00
2023-03-29T07:59:06.922Z,1742.00
2023-03-29T08:00:07.956Z,1774.00
2023-03-29T08:01:07.329Z,1761.00
2023-03-29T08:02:08.003Z,1765.00
2023-03-29T08:03:07.160Z,1816.00
2023-03-29T08:04:08.306Z,1798.00
2023-03-29T08:05:08.240Z,1813.00
2023-03-29T08:06:08.226Z,1835.00
2023-03-29T08:07:08.245Z,1842.00
2023-03-29T08:08:08.324Z,1848.00
2023-03-29T08:09:08.357Z,1856.00
2023-03-29T08:10:08.430Z,1876.00
2023-03-29T08:12:07.516Z,1940.00
2023-03-29T08:13:08.590Z,1945.00
2023-03-29T08:14:08.644Z,1949.00
2023-03-29T08:15:08.690Z,1955.00
2023-03-29T08:16:08.728Z,1979.00
2023-03-29T08:17:08.835Z,1989.00
2023-03-29T08:18:08.871Z,1989.00
2023-03-29T08:19:08.900Z,1992.00
2023-03-29T08:20:08.963Z,2030.00
2023-03-29T08:21:09.030Z,2024.00
2023-03-29T08:22:09.047Z,1938.00
2023-03-29T08:23:09.064Z,2058.00
2023-03-29T08:26:08.875Z,1955.00
2023-03-29T08:27:09.097Z,1620.00
2023-03-29T08:29:08.113Z,1560.00
2023-03-29T08:30:09.149Z,1635.00
2023-03-29T08:32:08.103Z,1460.00
2023-03-29T08:33:09.153Z,1482.00
2023-03-29T08:36:08.202Z,1527.00
2023-03-29T08:37:09.184Z,1521.00
2023-03-29T08:39:08.201Z,1482.00
2023-03-29T08:40:09.235Z,1685.00
2023-03-29T08:41:09.239Z,393.00
2023-03-29T08:42:09.243Z,657.00
2023-03-29T08:43:09.367Z,1202.00
2023-03-29T08:44:09.294Z,1107.00
2023-03-29T08:45:09.321Z,1278.00
2023-03-29T08:46:09.423Z,1314.00
2023-03-29T08:47:09.351Z,1234.00
2023-03-29T08:48:09.359Z,1426.00
2023-03-29T08:49:09.352Z,1159.00
2023-03-29T08:50:09.351Z,1039.00
2023-03-29T08:51:10.175Z,1132.00
2023-03-29T08:52:09.405Z,1170.00
2023-03-29T08:53:09.464Z,1511.00
2023-03-29T08:54:09.461Z,1027.00
2023-03-29T08:55:09.481Z,1087.00
2023-03-29T08:56:09.507Z,1129.00
2023-03-29T08:57:09.538Z,524.00
2023-03-29T08:59:08.589Z,1016.00
2023-03-29T09:00:09.624Z,1062.00
2023-03-29T09:01:09.648Z,1110.00
2023-03-29T09:02:09.807Z,1129.00
2023-03-29T09:03:09.801Z,1159.00
2023-03-29T09:04:09.919Z,1191.00
2023-03-29T09:07:08.780Z,1321.00
2023-03-29T09:08:09.833Z,1314.00
2023-03-29T09:09:08.895Z,1327.00
2023-03-29T09:10:08.947Z,1341.00
2023-03-29T09:11:09.979Z,1354.00
2023-03-29T09:12:09.995Z,1369.00
2023-03-29T09:13:10.042Z,1381.00
2023-03-29T09:14:09.041Z,1391.00
2023-03-29T09:15:10.075Z,1450.00
2023-03-29T09:16:10.128Z,1460.00
2023-03-29T09:21:09.090Z,1586.00
2023-03-29T09:22:09.146Z,1599.00
2023-03-29T09:23:09.215Z,1607.00
2023-03-29T09:24:10.258Z,1623.00
2023-03-29T09:25:09.328Z,1636.00
2023-03-29T09:26:10.377Z,1663.00
2023-03-29T09:27:10.425Z,1683.00
2023-03-29T09:28:10.498Z,1691.00
2023-03-29T09:29:10.547Z,1710.00
2023-03-29T09:30:10.571Z,1731.00
2023-03-29T09:31:10.648Z,1764.00
2023-03-29T09:32:10.664Z,1801.00
2023-03-29T09:33:10.783Z,1808.00
2023-03-29T09:37:09.938Z,1834.00
2023-03-29T09:38:10.994Z,1841.00
2023-03-29T09:39:11.023Z,1857.00
2023-03-29T09:40:11.044Z,1878.00
2023-03-29T09:41:11.092Z,1913.00
2023-03-29T09:43:10.095Z,1889.00
2023-03-29T09:44:20.802Z,1892.00
2023-03-29T09:45:11.118Z,1891.00
2023-03-29T09:47:10.116Z,1878.00
2023-03-29T09:48:10.470Z,1868.00
2023-03-29T09:49:11.153Z,1830.00
2023-03-29T09:50:16.826Z,1822.00
2023-03-29T09:51:11.080Z,1819.00
2023-03-29T09:54:10.077Z,1743.00
2023-03-29T09:57:10.086Z,1708.00
2023-03-29T09:58:11.027Z,1697.00
2023-03-29T09:59:10.031Z,1690.00
2023-03-29T10:00:11.017Z,1681.00
2023-03-29T10:01:11.042Z,1673.00
2023-03-29T10:02:11.149Z,1667.00
2023-03-29T10:06:10.311Z,1646.00
2023-03-29T10:07:10.348Z,1641.00
2023-03-29T10:08:11.416Z,1631.00
2023-03-29T10:09:11.450Z,1622.00
2023-03-29T10:10:11.523Z,1618.00
2023-03-29T10:11:11.581Z,1614.00
2023-03-29T10:12:11.633Z,1612.00
2023-03-29T10:13:11.728Z,1605.00
2023-03-29T10:14:11.741Z,1605.00
2023-03-29T10:15:19.635Z,1598.00
2023-03-29T10:16:11.828Z,1595.00
2023-03-29T10:18:10.826Z,1586.00
2023-03-29T10:19:11.748Z,1582.00
2023-03-29T10:20:11.751Z,1572.00
2023-03-29T10:21:11.768Z,1569.00
2023-03-29T10:22:10.731Z,1570.00
2023-03-29T10:24:10.722Z,1567.00
2023-03-29T10:25:11.701Z,1568.00
2023-03-29T10:26:11.715Z,1567.00
2023-03-29T10:30:10.665Z,1552.00
2023-03-29T10:31:11.668Z,1550.00
2023-03-29T10:32:11.675Z,1546.00
2023-03-29T10:33:11.688Z,1543.00
2023-03-29T10:34:11.663Z,1536.00
2023-03-29T10:35:11.629Z,1533.00
2023-03-29T10:38:10.623Z,1534.00
2023-03-29T10:39:11.615Z,1528.00
2023-03-29T10:40:11.605Z,1533.00
2023-03-29T10:41:11.652Z,1536.00
2023-03-29T10:43:10.760Z,1533.00
2023-03-29T10:44:11.933Z,1533.00
2023-03-29T10:45:10.873Z,1536.00
2023-03-29T10:46:11.954Z,1535.00
2023-03-29T10:47:11.977Z,1536.00
2023-03-29T10:48:12.030Z,1536.00
2023-03-29T10:49:12.098Z,1537.00
2023-03-29T10:50:12.158Z,1533.00
2023-03-29T10:51:12.208Z,1532.00
2023-03-29T10:52:12.285Z,1529.00
2023-03-29T10:53:12.357Z,1527.00
2023-03-29T10:54:12.410Z,1529.00
2023-03-29T10:55:12.428Z,1530.00
2023-03-29T10:56:12.486Z,1527.00
2023-03-29T10:57:12.611Z,1523.00
2023-03-29T10:58:12.587Z,1520.00
2023-03-29T10:59:12.638Z,1520.00
2023-03-29T11:00:12.726Z,1523.00
2023-03-29T11:01:12.803Z,1529.00
2023-03-29T11:02:12.896Z,1529.00
2023-03-29T11:03:15.801Z,1531.00
2023-03-29T11:06:11.816Z,1532.00
2023-03-29T11:07:12.801Z,1529.00
2023-03-29T11:08:12.800Z,1530.00
2023-03-29T11:09:12.802Z,1531.00
2023-03-29T11:10:11.778Z,1532.00
2023-03-29T11:11:12.759Z,1533.00
2023-03-29T11:12:16.210Z,1528.00
2023-03-29T11:14:11.767Z,1535.00
2023-03-29T11:15:12.772Z,1536.00
2023-03-29T11:17:11.720Z,1546.00
2023-03-29T11:18:12.717Z,1549.00
2023-03-29T11:19:11.717Z,1546.00
2023-03-29T11:20:12.881Z,1545.00
2023-03-29T11:24:14.711Z,1552.00
2023-03-29T11:25:12.751Z,1553.00
2023-03-29T11:30:11.669Z,1556.00
2023-03-29T11:31:12.671Z,1557.00
2023-03-29T11:32:12.667Z,1564.00
2023-03-29T11:33:12.658Z,1572.00
2023-03-29T11:35:11.628Z,1588.00
2023-03-29T11:36:12.671Z,1590.00
2023-03-29T11:37:12.625Z,1602.00
2023-03-29T11:40:11.621Z,1602.00
2023-03-29T11:41:12.610Z,1602.00
2023-03-29T11:42:12.572Z,1604.00
2023-03-29T11:43:12.565Z,1605.00
2023-03-29T11:44:12.592Z,1606.00
2023-03-29T11:46:11.550Z,1604.00
2023-03-29T11:47:12.533Z,1606.00
2023-03-29T11:48:12.537Z,1607.00
2023-03-29T11:49:12.535Z,1609.00
2023-03-29T11:50:11.533Z,1608.00
2023-03-29T11:51:12.509Z,1609.00
2023-03-29T11:55:11.588Z,1604.00
2023-03-29T11:56:12.632Z,1604.00
2023-03-29T11:57:12.749Z,1602.00
2023-03-29T11:58:12.719Z,1597.00
2023-03-29T11:59:12.777Z,1594.00
2023-03-29T12:00:12.822Z,1595.00
2023-03-29T12:01:12.865Z,1594.00
2023-03-29T12:03:12.088Z,1585.00
2023-03-29T12:04:13.126Z,1586.00
2023-03-29T12:05:13.115Z,1581.00
2023-03-29T12:06:13.176Z,1579.00
2023-03-29T12:07:13.233Z,1572.00
2023-03-29T12:08:13.302Z,1574.00
2023-03-29T12:09:16.189Z,1573.00
2023-03-29T12:10:13.362Z,1571.00
2023-03-29T12:15:12.320Z,1559.00
2023-03-29T12:16:13.347Z,1563.00
2023-03-29T12:17:12.295Z,1564.00
2023-03-29T12:18:13.285Z,1561.00
2023-03-29T12:21:12.279Z,1558.00
2023-03-29T12:22:13.255Z,1556.00
2023-03-29T12:23:13.267Z,1549.00
2023-03-29T12:28:12.319Z,1539.00
2023-03-29T12:29:13.403Z,1539.00
2023-03-29T12:30:13.449Z,1548.00
2023-03-29T12:31:13.510Z,1554.00
2023-03-29T12:32:13.574Z,1556.00
2023-03-29T12:33:15.804Z,1556.00
2023-03-29T12:37:12.599Z,1568.00
2023-03-29T12:38:13.597Z,1572.00
2023-03-29T12:42:12.581Z,1551.00
2023-03-29T12:43:13.547Z,1549.00
2023-03-29T12:44:13.551Z,1549.00
2023-03-29T12:46:12.551Z,1539.00
2023-03-29T12:47:13.523Z,1529.00
2023-03-29T12:49:12.508Z,1515.00
2023-03-29T12:50:13.506Z,1512.00
2023-03-29T12:54:12.490Z,1485.00
2023-03-29T12:55:13.478Z,1473.00
2023-03-29T13:00:12.693Z,1416.00
2023-03-29T13:01:13.854Z,1408.00
2023-03-29T13:02:13.955Z,1395.00
2023-03-29T13:03:14.464Z,1377.00
2023-03-29T13:06:13.077Z,1333.00
2023-03-29T13:10:13.094Z,1303.00
2023-03-29T13:11:14.096Z,1292.00
2023-03-29T13:12:13.133Z,1283.00
2023-03-29T13:13:14.076Z,1275.00
2023-03-29T13:14:14.081Z,1265.00
2023-03-29T13:19:13.057Z,1212.00
2023-03-29T13:20:14.024Z,1203.00
2023-03-29T13:22:13.006Z,1180.00
2023-03-29T13:23:16.956Z,1164.00
2023-03-29T13:24:14.034Z,1158.00
2023-03-29T13:29:12.954Z,1098.00
2023-03-29T13:30:13.954Z,1086.00
2023-03-29T13:32:12.929Z,1067.00
2023-03-29T13:33:13.946Z,1056.00
2023-03-29T13:35:12.918Z,1037.00
2023-03-29T13:36:13.945Z,1029.00
2023-03-29T13:37:12.918Z,1022.00
2023-03-29T13:38:12.925Z,1010.00
2023-03-29T13:41:12.984Z,985.00
2023-03-29T13:42:13.000Z,978.00
2023-03-29T13:43:14.035Z,974.00
2023-03-29T13:44:14.076Z,968.00
2023-03-29T13:45:14.106Z,963.00
2023-03-29T13:46:14.166Z,961.00
2023-03-29T13:47:13.182Z,953.00
2023-03-29T13:48:14.312Z,951.00
2023-03-29T13:49:14.380Z,948.00
2023-03-29T13:50:14.369Z,948.00
2023-03-29T13:51:14.431Z,947.00
2023-03-29T13:52:14.483Z,945.00
2023-03-29T13:53:14.541Z,937.00
2023-03-29T13:54:14.617Z,931.00
2023-03-29T13:55:14.682Z,923.00
2023-03-29T13:56:14.729Z,916.00
2023-03-29T13:57:14.873Z,905.00
2023-03-29T13:58:14.860Z,895.00
2023-03-29T13:59:14.922Z,879.00
2023-03-29T14:00:14.975Z,871.00
2023-03-29T14:01:14.052Z,870.00
2023-03-29T14:02:15.092Z,857.00
2023-03-29T14:04:14.201Z,845.00
2023-03-29T14:05:15.307Z,835.00
2023-03-29T14:06:15.321Z,828.00
2023-03-29T14:07:15.369Z,826.00
2023-03-29T14:09:14.510Z,809.00
2023-03-29T14:10:14.535Z,803.00
2023-03-29T14:11:15.575Z,799.00
2023-03-29T14:12:15.605Z,794.00
2023-03-29T14:13:15.649Z,789.00
2023-03-29T14:14:15.692Z,784.00
2023-03-29T14:15:15.778Z,777.00
2023-03-29T14:18:14.927Z,755.00
2023-03-29T14:19:15.925Z,747.00
2023-03-29T14:20:15.966Z,744.00
2023-03-29T14:21:16.039Z,741.00
2023-03-29T14:24:15.112Z,729.00
2023-03-29T14:25:15.191Z,727.00
2023-03-29T14:26:16.248Z,720.00
2023-03-29T14:28:15.297Z,714.00
2023-03-29T14:29:16.324Z,709.00
2023-03-29T14:34:15.456Z,688.00
2023-03-29T14:35:16.510Z,687.00
2023-03-29T14:36:16.610Z,682.00
2023-03-29T14:42:15.719Z,657.00
2023-03-29T14:43:15.703Z,656.00
2023-03-29T14:44:16.714Z,656.00
2023-03-29T14:45:16.760Z,654.00
2023-03-29T14:46:16.791Z,651.00
2023-03-29T14:47:16.750Z,647.00
2023-03-29T14:48:16.800Z,643.00
2023-03-29T14:49:16.814Z,640.00
2023-03-29T14:50:16.782Z,635.00
2023-03-29T14:51:16.754Z,633.00
2023-03-29T14:52:16.757Z,632.00
2023-03-29T14:53:16.789Z,629.00
2023-03-29T14:59:15.774Z,611.00
2023-03-29T15:00:16.800Z,606.00
2023-03-29T15:01:16.844Z,604.00
2023-03-29T15:02:16.813Z,600.00
2023-03-29T15:04:15.780Z,596.00
2023-03-29T15:05:15.788Z,593.00
2023-03-29T15:06:16.784Z,593.00
2023-03-29T15:09:15.814Z,588.00
2023-03-29T15:10:16.757Z,589.00
2023-03-29T15:11:16.776Z,583.00
2023-03-29T15:12:15.750Z,579.00
2023-03-29T15:13:16.764Z,576.00
2023-03-29T15:14:16.808Z,576.00
2023-03-29T15:17:15.793Z,604.00
2023-03-29T15:18:16.846Z,589.00
2023-03-29T15:19:16.802Z,582.00
2023-03-29T15:20:16.809Z,582.00
2023-03-29T15:21:18.170Z,578.00
2023-03-29T15:22:15.788Z,576.00
2023-03-29T15:23:16.824Z,567.00
2023-03-29T15:24:16.804Z,569.00
2023-03-29T15:25:16.838Z,562.00
2023-03-29T15:27:15.827Z,560.00
2023-03-29T15:28:16.814Z,557.00
2023-03-29T15:29:16.839Z,555.00
